Date,TemperatureHighF,TemperatureAvgF,TemperatureLowF,DewpointHighF,DewpointAvgF,DewpointLowF,HumidityHigh,HumidityAvg,HumidityLow,PressureMaxIn,PressureMinIn,WindSpeedMaxMPH,WindSpeedAvgMPH,GustSpeedMaxMPH,PrecipitationSumIn
2013-1-1,36.8,32.8,23.3,27.9,19.7,6.5,76,60,46,29.89,29.67,24,2,24,0.00
2013-1-2,32.2,22.9,15.8,20.0,8.1,1.7,77,61,49,30.05,29.84,15,2,18,0.00
2013-1-3,26.5,17.6,8.2,10.2,0.2,-6.8,74,57,33,30.09,29.94,7,0,8,0.00
2013-1-4,39.5,29.5,17.4,25.9,19.0,7.6,87,70,52,29.94,29.76,19,2,19,0.00
2013-1-5,42.9,34.0,27.1,25.9,23.0,16.5,82,66,44,30.21,29.79,12,1,13,0.00
2013-1-6,44.2,34.5,27.6,30.7,27.5,21.9,88,76,56,30.18,29.88,12,1,12,0.00
2013-1-7,41.7,33.6,26.6,31.1,25.3,19.3,90,74,44,30.35,29.91,8,1,13,0.00
2013-1-8,46.9,35.8,26.3,31.3,27.9,19.0,93,76,51,30.32,30.21,24,1,24,0.00
2013-1-9,44.9,37.4,27.7,36.9,31.0,24.9,92,78,59,30.34,29.93,19,1,19,0.00
2013-1-10,48.5,41.1,34.5,33.1,26.8,24.3,77,57,41,30.49,29.99,20,3,20,0.00
2013-1-11,42.4,36.5,29.7,38.0,30.6,25.3,96,80,62,30.47,30.17,2,0,3,0.00
2013-1-12,46.5,42.8,39.1,44.4,41.0,37.1,96,94,92,30.19,30.08,2,0,2,0.00
2013-1-13,53.0,48.5,43.4,51.4,47.0,41.6,98,95,91,30.11,29.94,12,1,20,0.00
2013-1-14,61.1,52.9,44.0,53.6,45.0,32.3,97,76,43,30.20,29.80,12,3,13,0.00
2013-1-15,44.5,40.6,36.2,33.4,28.9,25.2,78,63,50,30.26,30.15,3,0,6,0.00
2013-1-16,38.2,36.1,33.2,34.6,32.2,24.9,94,87,60,30.19,29.77,3,0,5,0.00
2013-1-17,43.5,37.0,32.7,35.0,30.1,17.1,95,77,51,30.04,29.79,17,1,17,0.00
2013-1-18,33.4,24.8,19.9,18.6,3.8,-5.9,65,46,30,30.40,30.00,15,2,27,0.00
2013-1-19,48.8,37.0,23.3,33.6,23.4,5.9,78,60,41,30.33,29.85,22,3,23,0.00
2013-1-20,52.9,41.8,30.0,34.0,27.7,12.7,77,59,40,29.87,29.50,26,5,32,0.00
2013-1-21,32.3,27.9,23.1,23.1,11.6,4.2,84,57,39,30.05,29.74,14,1,17,0.00
2013-1-22,29.0,23.1,16.5,22.6,6.6,-3.3,86,61,33,30.03,29.70,10,2,20,0.00
2013-1-23,21.1,14.3,9.6,0.3,-7.0,-11.3,64,46,31,30.09,30.01,14,2,17,0.00
2013-1-24,26.7,14.3,6.3,-5.3,-9.1,-12.3,55,42,27,30.17,30.01,14,2,18,0.00
2013-1-25,29.1,19.6,11.2,11.6,-4.9,-11.5,76,41,24,30.25,30.01,10,1,12,0.00
2013-1-26,31.3,20.4,14.7,11.8,2.2,-7.5,80,56,29,30.19,29.95,10,1,15,0.00
2013-1-27,35.3,23.2,15.1,8.0,1.6,-2.3,63,46,27,30.41,30.18,10,2,13,0.00
2013-1-28,35.5,28.4,21.7,28.7,15.4,1.0,89,64,34,30.40,29.95,5,0,8,0.00
2013-1-29,38.5,34.4,29.8,33.6,30.1,26.2,91,85,77,30.15,29.96,5,0,5,0.00
2013-1-30,61.3,50.4,36.3,58.4,48.4,33.4,100,94,86,30.10,29.41,22,3,27,0.00
2013-1-31,60.6,48.0,32.8,59.2,38.3,17.7,99,72,38,29.54,28.93,27,6,39,0.00
2013-2-1,34.1,30.2,23.9,21.4,11.5,1.7,63,47,34,30.03,29.54,17,4,17,0.00
2013-2-2,33.5,26.9,21.0,16.0,8.3,0.4,60,49,38,30.20,30.00,10,2,13,0.00
2013-2-3,32.1,28.5,25.4,25.1,20.9,14.4,86,77,55,30.01,29.68,8,0,8,0.00
2013-2-4,34.3,26.7,23.3,24.1,11.8,6.2,86,61,38,29.89,29.67,17,3,20,0.00
2013-2-5,32.7,28.5,23.5,25.3,15.3,7.3,85,62,50,29.97,29.88,5,0,5,0.00
2013-2-6,41.2,32.5,27.9,27.9,21.3,7.4,87,65,40,30.23,29.87,10,2,13,0.00
2013-2-7,36.6,27.6,20.5,17.5,7.3,-0.9,70,46,28,30.48,30.24,7,1,12,0.00
2013-2-8,34.7,30.9,19.8,33.5,26.4,12.8,100,87,60,30.43,29.54,19,4,22,0.00
2013-2-9,26.4,21.6,17.2,16.3,11.6,2.7,93,79,63,30.14,29.50,14,4,18,0.00
2013-2-10,48.4,24.4,9.3,22.7,8.7,-1.1,80,60,27,30.34,30.14,8,1,8,0.00
2013-2-11,43.6,34.3,18.8,42.8,30.1,9.2,100,90,79,30.30,29.55,7,1,7,0.00
2013-2-12,48.8,39.3,33.5,40.5,31.6,28.2,98,75,50,29.83,29.55,26,3,26,0.00
2013-2-13,50.2,37.1,29.2,31.1,28.2,24.9,89,72,42,29.82,29.64,12,1,12,0.00
2013-2-14,52.3,38.1,31.9,31.6,26.8,22.3,86,66,34,29.94,29.66,8,1,11,0.00
2013-2-15,56.1,39.5,29.1,36.7,32.1,25.5,96,77,45,29.96,29.85,14,2,15,0.00
2013-2-16,41.6,37.3,32.9,34.2,29.9,20.7,94,76,56,29.90,29.66,8,2,10,0.00
2013-2-17,32.7,24.0,19.1,24.7,11.3,-0.1,91,69,45,29.65,29.35,29,5,29,0.00
2013-2-18,38.0,24.1,15.9,9.3,2.9,-1.4,58,46,26,30.10,29.63,26,5,26,0.00
2013-2-19,49.4,37.2,25.0,41.1,26.3,3.2,100,69,46,30.12,29.53,12,1,12,0.00
2013-2-20,39.9,32.4,27.1,39.9,21.8,10.5,100,67,42,29.73,29.48,19,4,23,0.00
2013-2-21,36.6,28.9,25.4,18.9,14.3,8.6,70,58,41,30.13,29.73,15,4,18,0.00
2013-2-22,42.0,31.9,24.0,27.5,21.4,13.3,86,69,44,30.33,30.14,8,1,11,0.00
2013-2-23,39.1,34.9,28.5,35.2,30.6,25.5,98,83,70,30.28,29.87,7,1,8,0.00
2013-2-24,38.1,35.3,33.0,38.6,35.2,32.7,100,98,95,29.86,29.64,12,2,13,0.00
2013-2-25,40.4,35.2,32.6,33.6,32.0,28.9,100,88,66,30.19,29.84,5,0,6,0.00
2013-2-26,43.2,35.3,28.1,33.7,30.7,27.8,100,84,59,30.28,30.10,8,1,10,0.00
2013-2-27,41.1,39.4,36.5,40.9,39.0,32.7,100,99,86,30.10,29.51,17,4,20,0.00
2013-2-28,46.8,38.4,33.8,38.5,36.4,33.5,100,93,71,29.59,29.47,3,0,6,0.00
2013-3-1,41.7,37.7,32.5,36.0,31.5,28.6,100,79,62,29.63,29.48,10,1,17,0.00
2013-3-2,43.8,37.8,33.0,33.0,28.9,26.3,84,71,56,29.63,29.57,10,1,12,0.00
2013-3-3,43.1,36.4,33.1,33.0,29.9,26.6,96,78,62,29.60,29.51,7,1,7,0.00
2013-3-4,40.6,34.7,30.7,28.2,25.4,22.0,82,70,53,29.69,29.53,22,4,22,0.00
2013-3-5,47.3,36.9,32.1,33.6,28.5,23.8,97,73,50,30.01,29.69,8,2,13,0.00
2013-3-6,40.2,37.4,34.6,37.6,34.4,29.8,98,89,69,30.06,29.98,24,5,24,0.00
2013-3-7,36.7,33.1,31.3,33.6,31.6,29.9,99,94,78,30.01,29.93,19,6,25,0.00
2013-3-8,40.2,34.1,30.5,33.8,30.6,25.1,99,87,58,30.09,29.87,15,4,18,0.00
2013-3-9,47.8,35.3,27.1,33.5,27.9,22.2,100,76,50,30.30,30.09,10,2,15,0.00
2013-3-10,46.0,34.0,24.7,33.5,28.3,19.2,100,86,59,30.37,30.26,10,1,10,0.00
2013-3-11,53.6,41.1,34.9,41.0,36.5,33.0,100,86,61,30.28,30.10,12,2,13,0.00
2013-3-12,56.8,47.6,39.4,53.4,46.4,39.0,100,97,81,30.11,29.67,12,2,17,0.00
2013-3-13,54.6,44.1,34.4,51.2,33.4,21.7,100,70,34,29.74,29.65,14,2,14,0.00
2013-3-14,36.8,32.1,23.9,26.7,16.7,4.5,77,55,40,29.79,29.66,19,4,19,0.00
2013-3-15,45.3,31.7,21.9,28.0,13.7,4.1,79,53,28,29.83,29.58,15,3,22,0.00
2013-3-16,43.0,34.7,29.6,28.3,18.0,10.5,82,52,27,29.82,29.62,10,1,12,0.00
2013-3-17,41.0,31.8,24.9,20.6,13.6,5.1,80,51,26,30.26,29.82,15,2,15,0.00
2013-3-18,42.9,30.0,19.3,29.0,10.9,-1.3,92,50,27,30.41,30.19,8,1,10,0.00
2013-3-19,37.1,33.7,30.1,37.0,33.2,28.8,100,98,93,30.18,29.55,15,3,18,0.00
2013-3-20,42.1,32.7,27.5,29.9,24.1,18.4,96,73,41,29.77,29.65,20,3,20,0.00
2013-3-21,39.0,31.7,24.0,30.9,24.0,16.3,95,77,49,29.78,29.56,10,1,12,0.00
2013-3-22,43.0,34.0,29.2,29.5,22.2,17.0,97,63,41,29.70,29.55,14,3,15,0.00
2013-3-23,45.5,35.4,29.0,25.5,22.1,18.7,79,60,37,29.75,29.59,24,4,24,0.00
2013-3-24,50.2,38.4,31.7,30.1,25.2,21.5,84,61,37,29.77,29.68,10,2,12,0.00
2013-3-25,45.6,37.6,31.4,33.9,30.7,27.8,91,77,58,29.73,29.46,15,3,15,0.00
2013-3-26,53.1,41.3,35.4,31.6,26.9,21.5,81,58,33,29.73,29.48,10,2,13,0.00
2013-3-27,54.0,42.3,30.1,31.2,25.7,22.3,80,55,33,29.82,29.69,15,2,15,0.00
2013-3-28,48.7,42.1,37.5,37.0,34.1,29.4,92,75,49,29.97,29.81,12,1,12,0.00
2013-3-29,57.8,46.0,34.5,40.1,32.8,27.7,90,63,35,30.00,29.91,14,1,20,0.00
2013-3-30,61.9,46.9,35.2,34.1,26.7,17.0,79,50,21,30.05,29.95,12,2,12,0.00
2013-3-31,61.0,45.5,29.8,42.0,29.4,23.8,90,59,26,30.07,29.69,19,2,19,0.00
2013-4-1,62.8,47.2,35.5,49.7,38.4,14.4,100,75,40,29.74,29.46,15,3,17,0.00
2013-4-2,45.3,35.4,29.7,20.9,16.0,10.2,65,46,30,29.90,29.75,26,4,26,0.00
2013-4-3,50.3,37.5,31.2,21.4,15.2,11.1,65,42,25,30.11,29.88,17,5,25,0.00
2013-4-4,60.7,43.0,30.4,27.0,18.8,14.2,62,41,19,30.25,30.00,15,3,17,0.00
2013-4-5,64.8,47.2,38.0,31.8,27.9,21.4,73,51,22,30.01,29.57,10,3,15,0.00
2013-4-6,52.9,39.2,31.3,26.8,13.9,6.4,61,38,19,30.28,29.83,14,3,17,0.00
2013-4-7,57.9,42.6,28.0,40.6,28.8,17.9,83,60,36,30.28,29.96,19,3,20,0.00
2013-4-8,71.2,53.7,41.0,44.2,40.6,35.1,99,66,28,30.04,29.90,8,2,10,0.00
2013-4-9,73.5,56.5,46.5,53.0,44.7,39.4,99,69,36,30.03,29.81,17,2,18,0.00
2013-4-10,68.3,53.4,46.4,50.5,46.7,42.6,98,80,49,29.97,29.80,7,1,10,0.00
2013-4-11,55.9,47.9,41.5,49.6,42.7,27.2,100,85,50,30.09,29.77,7,1,10,0.00
2013-4-12,42.4,40.2,38.7,41.2,38.4,33.3,100,94,77,30.12,29.73,14,3,20,0.00
2013-4-13,55.7,44.6,37.2,42.1,38.4,34.5,99,81,50,29.88,29.71,8,2,13,0.00
2013-4-14,52.3,44.9,37.7,42.1,34.4,26.5,95,70,41,30.17,29.87,14,2,14,0.00
2013-4-15,60.4,45.5,32.1,40.2,34.6,29.8,92,68,38,30.34,30.16,10,1,11,0.00
2013-4-16,66.6,51.7,36.7,50.8,42.6,36.0,99,74,48,30.36,30.01,15,4,22,0.00
2013-4-17,70.2,58.9,47.1,53.0,38.8,28.4,88,52,24,30.28,30.01,19,3,19,0.00
2013-4-18,68.5,52.1,38.7,45.3,35.4,29.2,86,56,31,30.37,30.10,15,2,17,0.00
2013-4-19,76.2,63.4,52.7,62.7,57.9,45.6,100,85,58,30.10,29.61,26,5,26,0.00
2013-4-20,65.6,54.5,44.6,63.1,43.6,25.8,100,71,40,30.18,29.55,17,3,18,0.00
2013-4-21,57.7,43.8,34.8,31.1,25.3,19.9,77,50,26,30.62,30.17,10,1,13,0.00
2013-4-22,54.1,42.6,32.2,36.4,31.8,25.4,94,68,35,30.70,30.53,14,2,15,0.00
2013-4-23,43.5,42.1,40.7,43.2,39.8,32.6,100,92,71,30.54,30.06,12,2,12,0.00
2013-4-24,76.8,55.7,42.5,53.0,46.1,42.5,100,75,30,30.07,29.74,14,2,14,0.00
2013-4-25,68.7,55.3,44.3,53.6,39.3,27.8,98,60,25,30.21,29.78,14,2,15,0.00
2013-4-26,62.3,49.1,39.1,42.2,37.2,31.7,92,65,43,30.37,30.21,14,1,14,0.00
2013-4-27,67.3,51.5,37.0,42.6,38.7,34.7,99,67,34,30.37,30.23,10,1,10,0.00
2013-4-28,72.4,54.3,38.5,42.9,37.0,29.3,94,57,31,30.29,30.15,10,1,10,0.00
2013-4-29,72.8,56.7,45.1,46.7,38.9,26.4,94,57,26,30.23,30.14,12,1,12,0.00
2013-4-30,71.9,55.7,43.0,40.7,33.2,22.0,84,48,20,30.32,30.20,8,1,10,0.00
2013-5-1,70.5,54.2,38.0,40.5,35.9,30.8,92,55,26,30.42,30.31,12,1,12,0.00
2013-5-2,78.9,55.4,42.2,46.1,42.3,36.9,96,66,27,30.43,30.29,10,1,11,0.00
2013-5-3,62.5,50.3,42.4,45.9,41.7,39.4,92,74,52,30.47,30.32,20,1,20,0.00
2013-5-4,61.9,48.4,39.0,45.8,40.8,36.9,98,77,49,30.32,30.25,8,1,12,0.00
2013-5-5,60.6,47.9,36.7,44.4,40.2,36.5,99,78,51,30.29,30.20,8,1,8,0.00
2013-5-6,71.2,52.3,38.4,50.5,45.3,37.2,100,80,46,30.25,30.09,10,0,10,0.00
2013-5-7,80.1,61.5,43.9,57.5,51.4,43.2,99,73,44,30.13,30.03,17,1,17,0.00
2013-5-8,72.2,62.8,52.1,63.6,58.3,51.6,100,87,63,30.15,29.99,10,0,10,0.00
2013-5-9,67.6,60.2,57.3,63.5,59.3,57.0,100,98,78,30.00,29.83,5,0,5,0.00
2013-5-10,78.8,65.2,54.6,61.9,57.5,52.2,100,80,43,29.91,29.84,7,0,7,0.00
2013-5-11,70.5,63.2,58.3,63.2,59.5,55.1,99,89,73,29.87,29.64,12,1,12,0.00
2013-5-12,70.8,61.4,50.7,61.1,52.9,33.1,100,77,45,29.77,29.51,10,1,12,0.00
2013-5-13,60.8,50.9,42.8,37.3,33.4,28.9,76,53,35,29.98,29.76,10,1,13,0.00
2013-5-14,59.6,50.1,40.0,39.0,33.7,28.7,81,57,37,30.01,29.92,10,1,10,0.00
2013-5-15,67.5,52.4,37.8,52.4,41.3,30.6,98,73,36,30.01,29.63,12,1,12,0.00
2013-5-16,80.9,65.5,49.2,51.8,43.3,35.1,100,55,23,29.75,29.58,20,2,20,0.00
2013-5-17,70.5,59.6,50.4,47.8,43.0,38.0,83,59,36,30.17,29.74,8,1,13,0.00
2013-5-18,73.3,59.2,45.3,49.4,45.3,38.8,99,67,31,30.26,30.16,12,0,12,0.00
2013-5-19,72.8,57.0,48.1,55.1,50.7,46.5,100,85,49,30.30,30.17,7,0,7,0.00
2013-5-20,80.6,67.5,56.0,65.4,60.7,54.6,100,84,56,30.18,29.86,8,0,8,0.00
2013-5-21,82.6,63.8,53.0,69.1,59.4,51.8,100,90,62,29.95,29.80,7,0,7,0.00
2013-5-22,69.4,57.8,52.0,62.9,55.2,50.9,100,95,78,30.01,29.84,7,0,7,0.00
2013-5-23,77.0,65.5,55.9,69.5,62.4,54.8,100,93,78,29.88,29.75,19,1,19,0.00
2013-5-24,71.4,63.8,51.2,68.0,62.8,51.0,100,98,87,29.78,29.60,10,1,10,0.00
2013-5-25,54.0,49.3,43.0,53.1,48.9,41.8,100,99,95,29.76,29.66,12,1,12,0.00
2013-5-26,59.7,49.4,41.3,45.3,42.1,39.7,100,79,52,30.06,29.67,10,2,13,0.00
2013-5-27,72.8,57.5,42.8,47.5,42.2,35.3,97,62,27,30.12,30.02,12,1,12,0.00
2013-5-28,76.5,59.8,44.5,55.6,48.4,42.6,97,70,34,30.19,30.10,7,0,7,0.00
2013-5-29,71.4,63.2,59.0,67.7,61.4,54.1,100,94,82,30.15,29.94,10,0,10,0.00
2013-5-30,87.5,74.1,62.7,70.3,67.0,62.6,100,81,53,30.04,29.96,12,1,12,0.00
2013-5-31,93.6,79.0,65.5,70.7,66.9,62.3,99,71,39,30.04,29.88,8,0,10,0.00
2013-6-1,93.3,78.7,65.9,68.9,66.1,63.2,91,68,41,29.94,29.81,12,1,12,0.00
2013-6-2,90.9,77.4,68.5,70.7,66.6,63.8,91,71,44,29.85,29.68,17,1,17,0.00
2013-6-3,76.0,69.5,62.4,70.2,65.0,49.6,98,86,62,29.81,29.70,7,0,7,0.00
2013-6-4,73.6,61.9,51.6,51.7,47.5,43.2,80,61,42,30.05,29.77,10,1,10,0.00
2013-6-5,76.6,62.6,50.2,54.1,49.5,45.2,93,65,37,30.15,30.04,8,0,8,0.00
2013-6-6,75.3,64.2,54.6,57.0,51.9,47.0,90,66,44,30.15,30.05,10,0,13,0.00
2013-6-7,59.6,57.0,54.7,59.3,56.4,52.2,100,98,90,30.07,29.78,7,0,7,0.00
2013-6-8,77.8,63.8,54.5,65.3,59.2,54.4,100,87,64,29.95,29.56,15,1,15,0.00
2013-6-9,80.9,67.8,56.5,60.4,57.6,53.6,99,73,46,30.11,29.95,7,0,8,0.00
2013-6-10,69.3,62.5,56.0,62.6,59.1,55.1,100,89,63,30.16,29.97,7,0,7,0.00
2013-6-11,64.6,59.9,57.2,62.1,59.4,57.3,100,97,87,29.97,29.52,8,0,12,0.00
2013-6-12,74.5,63.1,57.7,60.1,57.6,54.8,100,83,58,29.77,29.51,14,1,14,0.00
2013-6-13,66.3,58.0,53.0,61.1,56.2,52.5,100,93,78,29.77,29.63,5,0,5,0.00
2013-6-14,72.8,60.5,52.3,62.6,56.8,52.3,100,88,61,29.71,29.59,7,0,10,0.00
2013-6-15,80.4,66.7,56.1,57.0,52.1,44.6,97,63,33,29.90,29.71,8,0,8,0.00
2013-6-16,75.6,65.4,53.3,63.7,56.8,50.1,93,74,49,29.90,29.67,7,0,7,0.00
2013-6-17,88.1,69.9,59.2,64.7,61.6,57.6,100,78,39,29.87,29.72,10,1,12,0.00
2013-6-18,78.1,63.8,59.5,67.8,62.3,59.8,100,95,61,29.90,29.83,7,0,7,0.00
2013-6-19,75.8,63.9,56.0,60.3,56.7,50.5,100,80,48,30.10,29.85,5,0,10,0.00
2013-6-20,81.1,66.0,52.5,58.3,54.5,47.8,99,70,37,30.21,30.10,8,0,8,0.00
2013-6-21,85.8,70.7,58.1,66.3,60.5,55.3,91,72,47,30.21,30.13,8,0,8,0.00
2013-6-22,86.8,72.4,62.5,66.2,61.0,57.5,86,69,43,30.18,30.06,12,0,12,0.00
2013-6-23,91.0,76.4,65.0,74.4,65.9,57.1,83,71,55,30.12,29.95,12,1,12,0.00
2013-6-24,94.5,80.0,70.4,73.8,70.9,66.6,97,76,47,29.98,29.82,7,1,7,0.00
2013-6-25,92.9,78.5,68.5,72.8,69.5,67.7,99,76,45,29.88,29.68,8,1,8,0.00
2013-6-26,85.8,75.9,69.4,74.5,70.1,67.3,94,82,62,29.81,29.67,7,0,7,0.00
2013-6-27,74.6,67.4,64.5,68.1,65.8,63.2,100,94,79,29.83,29.71,5,0,5,0.00
2013-6-28,84.7,71.9,63.2,75.3,69.1,63.4,100,91,70,29.72,29.44,12,1,13,0.00
2013-6-29,86.2,76.0,71.2,73.8,70.1,66.6,98,83,60,29.68,29.46,12,1,13,0.00
2013-6-30,87.5,76.4,70.0,75.7,71.0,68.0,98,84,65,29.91,29.68,12,1,12,0.00
2013-7-1,83.6,76.0,72.1,77.6,73.4,71.4,100,92,76,30.04,29.89,7,0,10,0.00
2013-7-2,84.9,75.0,65.3,75.6,71.1,62.8,96,88,72,30.16,30.02,7,1,8,0.00
2013-7-3,90.1,76.2,65.2,75.8,70.0,63.0,97,82,58,30.16,30.08,10,1,10,0.00
2013-7-4,93.8,82.0,73.0,76.7,74.0,71.9,97,78,54,30.16,30.05,10,1,10,0.00
2013-7-5,96.6,83.9,76.2,77.5,73.9,71.9,88,73,49,30.12,29.99,10,1,10,0.00
2013-7-6,92.5,82.0,75.5,75.3,72.5,67.0,91,74,53,30.04,29.93,8,0,8,0.00
2013-7-7,93.5,79.0,70.5,78.2,72.1,67.0,96,80,55,29.99,29.85,8,0,8,0.00
2013-7-8,86.3,76.7,69.1,76.7,72.1,65.5,99,86,69,30.02,29.86,7,0,8,0.00
2013-7-9,74.8,70.4,66.8,69.7,67.0,65.0,97,89,81,30.06,29.99,5,0,5,0.00
2013-7-10,87.4,75.0,67.4,76.1,71.5,65.7,99,89,67,30.03,29.75,15,0,15,0.00
2013-7-11,129.4,79.8,71.0,76.2,72.1,55.8,99,92,58,29.87,29.73,5,0,6,0.00
2013-7-12,76.5,70.9,67.2,70.9,63.7,56.9,100,79,58,30.15,29.86,17,1,17,0.00
2013-7-13,78.0,71.3,67.0,71.6,67.8,63.2,98,89,77,30.26,30.15,5,0,5,0.00
2013-7-14,92.5,78.9,70.8,76.2,72.8,70.1,100,84,49,30.26,30.14,7,0,8,0.00
2013-7-15,92.1,79.8,71.3,77.5,73.7,71.0,100,84,56,30.16,30.05,5,0,5,0.00
2013-7-16,95.0,80.4,70.5,74.3,70.2,67.0,96,74,46,30.12,30.05,5,0,6,0.00
2013-7-17,94.7,81.6,71.0,75.3,71.8,69.0,97,75,46,30.14,29.96,5,0,6,0.00
2013-7-18,92.1,83.0,75.5,76.2,73.5,70.7,91,75,54,29.97,29.89,5,0,6,0.00
2013-7-19,97.6,85.3,75.9,78.1,75.1,71.7,95,74,46,29.91,29.68,10,1,12,0.00
2013-7-20,93.8,83.7,76.4,78.4,74.4,65.2,91,75,47,29.77,29.60,10,0,10,0.00
2013-7-21,84.5,75.8,70.2,69.7,65.9,61.5,93,72,56,29.95,29.77,7,0,7,0.00
2013-7-22,84.5,73.7,66.9,71.5,68.3,66.0,98,84,61,29.97,29.84,8,1,8,0.00
2013-7-23,79.3,73.1,70.4,78.0,72.4,68.2,100,98,89,29.83,29.49,8,0,8,0.00
2013-7-24,84.0,75.3,68.3,75.1,69.5,58.4,100,84,61,29.91,29.53,7,0,7,0.00
2013-7-25,68.1,62.5,60.0,61.4,57.6,52.5,100,84,69,30.06,29.90,5,0,5,0.00
2013-7-26,71.6,65.1,60.7,69.4,64.5,60.7,100,98,90,30.01,29.89,7,0,7,0.00
2013-7-27,83.4,70.7,59.5,69.9,65.1,59.6,100,85,56,30.02,29.94,5,0,6,0.00
2013-7-28,85.7,72.4,65.7,74.0,69.3,65.2,100,91,67,29.97,29.91,7,0,7,0.00
2013-7-29,83.3,72.4,67.5,73.1,69.8,66.5,100,92,65,29.99,29.92,12,0,12,0.00
2013-7-30,82.3,70.8,60.4,68.8,62.8,57.4,100,78,46,30.06,29.98,8,0,8,0.00
2013-7-31,82.9,70.9,60.8,66.8,62.3,56.2,98,77,46,30.10,29.99,3,0,5,0.00
2013-8-1,83.1,70.6,63.1,67.3,64.2,62.4,98,82,54,30.02,29.83,10,0,10,0.00
2013-8-2,82.6,71.5,64.9,70.4,65.1,59.9,100,82,53,29.84,29.75,8,0,8,0.00
2013-8-3,78.1,70.8,65.2,66.4,64.3,61.3,95,81,61,29.83,29.73,7,0,7,0.00
2013-8-4,81.1,68.5,60.1,64.9,59.7,56.3,94,75,44,29.85,29.73,7,0,7,0.00
2013-8-5,77.5,65.2,56.8,57.7,51.5,45.3,90,64,36,30.01,29.85,7,0,7,0.00
2013-8-6,82.5,65.0,52.3,57.9,54.4,51.1,97,71,39,30.11,30.00,5,0,5,0.00
2013-8-7,82.1,67.7,56.6,61.5,57.0,50.2,98,72,41,30.15,30.07,8,0,8,0.00
2013-8-8,79.9,71.8,65.4,72.3,67.5,57.0,98,87,74,30.10,29.96,8,0,8,0.00
2013-8-9,75.4,72.9,71.4,75.4,72.3,70.0,100,98,94,29.98,29.71,10,0,13,0.00
2013-8-10,82.1,73.2,64.4,72.8,63.9,55.5,100,76,45,29.96,29.74,12,1,12,0.00
2013-8-11,79.8,67.5,56.0,61.6,57.4,52.7,98,73,44,30.05,29.95,7,0,8,0.00
2013-8-12,82.8,70.1,60.9,64.3,61.1,56.3,96,76,45,29.99,29.87,7,0,7,0.00
2013-8-13,75.3,68.8,64.5,69.4,65.7,63.1,97,90,69,29.89,29.65,5,0,6,0.00
2013-8-14,75.1,67.0,61.3,65.1,56.7,52.1,99,71,48,29.93,29.63,10,1,12,0.00
2013-8-15,77.2,65.3,55.9,57.0,54.1,50.3,92,70,43,30.08,29.92,8,0,8,0.00
2013-8-16,79.4,66.4,55.4,59.6,56.7,53.5,95,74,44,30.16,30.07,7,0,7,0.00
2013-8-17,81.5,67.6,56.8,62.4,59.3,55.9,98,77,51,30.25,30.15,7,0,8,0.00
2013-8-18,80.3,68.1,59.3,67.3,62.1,58.3,97,82,52,30.24,30.04,3,0,5,0.00
2013-8-19,81.9,70.4,58.7,64.3,61.2,57.9,98,75,48,30.05,29.90,5,0,8,0.00
2013-8-20,86.6,73.6,63.3,65.9,63.4,59.4,94,73,43,30.05,29.93,7,0,7,0.00
2013-8-21,88.7,74.5,62.3,67.7,64.8,61.1,96,74,48,30.11,29.98,7,0,7,0.00
2013-8-22,85.8,74.8,65.4,72.9,68.4,64.0,95,82,59,30.00,29.78,8,0,8,0.00
2013-8-23,83.4,71.8,63.6,70.3,62.4,53.0,97,74,47,30.08,29.78,7,0,7,0.00
2013-8-24,78.6,65.4,55.2,53.7,51.3,46.2,90,62,35,30.30,30.08,7,0,7,0.00
2013-8-25,83.3,67.3,52.8,58.2,54.4,49.3,97,68,33,30.32,30.14,5,0,6,0.00
2013-8-26,80.8,71.6,65.4,67.8,62.9,57.2,85,75,58,30.16,29.83,12,0,12,0.00
2013-8-27,81.8,72.7,66.1,72.5,68.6,65.2,100,88,65,29.86,29.79,7,0,7,0.00
2013-8-28,85.8,70.8,62.7,69.5,65.6,62.4,100,85,54,29.94,29.81,7,0,7,0.00
2013-8-29,67.6,65.4,62.4,66.7,63.5,59.1,98,93,87,30.03,29.90,10,0,10,0.00
2013-8-30,83.8,70.6,62.6,69.1,64.6,59.6,93,82,58,29.99,29.78,7,0,7,0.00
2013-8-31,80.5,74.4,68.7,74.3,71.4,67.8,99,90,79,29.80,29.75,7,0,8,0.00
2013-9-1,125.6,72.6,67.9,77.2,72.2,67.9,100,98,92,29.85,29.75,8,0,13,0.00
2013-9-2,83.0,74.2,70.1,77.2,72.9,70.2,100,96,80,29.83,29.67,10,0,10,0.00
2013-9-3,78.4,72.6,65.2,72.8,69.7,60.0,100,91,74,29.77,29.64,12,0,15,0.00
2013-9-4,80.8,68.5,58.9,61.4,59.2,56.4,99,75,48,29.88,29.76,8,0,10,0.00
2013-9-5,72.3,63.3,52.5,65.3,59.1,49.9,99,87,55,30.11,29.82,5,0,5,0.00
2013-9-6,70.1,57.3,47.1,51.3,47.2,41.7,94,72,39,30.21,30.05,10,0,10,0.00
2013-9-7,78.1,63.0,50.0,59.1,53.0,47.4,93,72,41,30.06,29.82,7,0,7,0.00
2013-9-8,76.8,65.2,52.2,63.3,54.7,43.7,90,70,42,30.06,29.71,10,1,10,0.00
2013-9-9,69.0,56.9,45.7,52.6,47.5,42.6,95,73,45,30.20,30.05,5,0,8,0.00
2013-9-10,75.8,66.3,55.0,71.2,63.3,52.0,98,90,83,30.13,29.99,10,0,10,0.00
2013-9-11,92.5,78.7,68.0,77.3,72.3,68.0,100,83,54,30.03,29.89,7,0,7,0.00
2013-9-12,87.1,76.7,69.5,75.1,71.4,68.9,100,85,64,29.93,29.64,10,1,12,0.00
2013-9-13,78.5,68.9,60.4,70.8,66.7,57.1,100,94,69,29.72,29.52,7,0,7,0.00
2013-9-14,68.7,61.0,53.2,58.7,55.6,52.4,98,84,68,30.02,29.72,7,0,7,0.00
2013-9-15,71.5,58.6,49.5,54.9,52.3,49.5,100,82,52,30.12,30.01,7,0,8,0.00
2013-9-16,66.8,58.3,50.3,59.2,53.2,41.8,98,84,70,30.21,29.98,5,0,5,0.00
2013-9-17,65.9,52.3,42.7,48.2,43.2,39.6,96,73,44,30.39,30.21,7,0,7,0.00
2013-9-18,75.9,56.9,43.9,53.0,47.7,43.3,99,76,37,30.29,30.10,7,0,7,0.00
2013-9-19,81.1,61.3,48.9,59.9,53.9,48.0,98,80,40,30.11,29.99,5,0,5,0.00
2013-9-20,81.1,62.8,51.5,61.5,56.1,50.9,100,82,44,30.05,29.95,3,0,3,0.00
2013-9-21,77.4,65.4,55.9,67.0,61.4,55.8,100,89,61,30.00,29.68,14,1,14,0.00
2013-9-22,71.8,64.9,53.6,68.3,59.4,48.3,100,84,57,29.79,29.56,17,1,18,0.00
2013-9-23,68.1,54.2,47.4,50.0,45.4,42.1,88,74,51,29.97,29.79,8,0,12,0.00
2013-9-24,71.3,54.6,45.4,50.1,45.1,41.4,90,72,44,29.96,29.77,8,0,8,0.00
2013-9-25,67.0,55.4,46.7,53.3,49.4,45.7,97,82,60,29.95,29.84,5,0,5,0.00
2013-9-26,68.7,58.1,54.2,54.3,51.6,47.8,94,80,58,30.09,29.94,7,0,8,0.00
2013-9-27,64.2,58.1,50.9,57.6,53.7,50.2,99,86,71,30.22,30.08,7,0,7,0.00
2013-9-28,74.5,57.4,48.4,59.2,52.8,48.1,100,87,55,30.29,30.21,5,0,6,0.00
2013-9-29,70.8,54.9,48.1,55.9,50.0,43.2,100,87,47,30.23,30.08,7,0,7,0.00
2013-9-30,70.7,56.3,49.9,55.0,52.3,49.2,100,89,55,30.09,29.93,5,0,5,0.00
2013-10-1,79.8,59.0,46.7,58.8,52.9,46.4,100,84,43,29.93,29.80,5,0,5,0.00
2013-10-2,81.6,64.9,53.1,62.9,58.2,52.6,100,82,53,29.91,29.78,15,0,15,0.00
2013-10-3,77.4,62.7,52.5,58.0,53.7,46.7,100,77,41,30.05,29.91,3,0,3,0.00
2013-10-4,63.7,58.2,51.7,61.8,56.5,50.8,100,95,86,30.05,29.99,2,0,2,0.00
2013-10-5,68.5,61.9,57.7,62.5,59.1,56.8,100,92,74,30.08,30.01,3,0,3,0.00
2013-10-6,61.1,58.1,56.0,60.2,57.8,55.8,100,100,95,30.18,30.06,5,0,5,0.00
2013-10-7,78.4,66.0,57.7,71.2,63.9,55.8,100,94,77,30.09,29.77,15,2,17,0.00
2013-10-8,68.7,57.1,46.6,56.1,48.5,43.3,92,75,49,30.33,29.86,12,0,12,0.00
2013-10-9,62.2,51.1,44.2,48.6,45.6,42.7,100,84,53,30.43,30.32,12,0,12,0.00
2013-10-10,62.5,52.5,44.5,54.9,50.0,44.0,100,93,75,30.32,30.14,7,0,7,0.00
2013-10-11,72.1,57.3,51.0,58.9,52.7,49.8,100,87,60,30.14,30.05,5,0,6,0.00
2013-10-12,60.5,54.6,48.8,57.5,53.3,48.4,100,96,86,30.35,30.10,5,0,12,0.00
2013-10-13,59.7,52.1,43.2,52.1,48.5,42.6,100,89,69,30.40,30.32,5,0,8,0.00
2013-10-14,65.4,49.1,37.0,50.5,43.7,36.8,100,85,40,30.37,30.21,7,0,7,0.00
2013-10-15,67.4,56.0,48.1,56.1,51.5,47.8,100,87,62,30.23,30.14,5,0,5,0.00
2013-10-16,61.7,55.3,47.7,57.5,53.7,47.2,100,96,83,30.14,29.87,3,0,3,0.00
2013-10-17,73.9,60.6,52.5,61.6,57.9,52.3,100,93,66,29.88,29.69,7,0,8,0.00
2013-10-18,68.6,60.4,48.8,62.1,52.7,44.5,100,79,48,29.88,29.57,10,1,15,0.00
2013-10-19,67.0,53.9,43.7,49.8,45.6,42.1,96,77,45,29.94,29.71,10,0,10,0.00
2013-10-20,65.5,53.5,42.6,53.1,43.2,33.6,100,72,36,29.99,29.65,12,1,15,0.00
2013-10-21,69.9,51.4,39.1,46.9,41.9,37.5,96,74,39,30.08,29.96,7,0,7,0.00
2013-10-22,67.1,53.3,43.0,53.2,47.1,40.4,100,82,54,29.96,29.67,8,0,10,0.00
2013-10-23,51.8,45.7,37.7,41.1,38.3,34.6,97,77,54,29.77,29.56,5,0,6,0.00
2013-10-24,55.5,45.4,39.3,38.9,33.0,24.9,86,64,37,29.85,29.60,12,1,15,0.00
2013-10-25,50.6,41.3,33.5,36.2,31.8,28.1,94,71,45,30.12,29.85,14,0,14,0.00
2013-10-26,58.2,43.2,31.7,39.1,32.5,27.8,96,70,34,30.12,29.84,20,1,20,0.00
2013-10-27,56.4,47.7,39.8,42.7,36.7,29.6,95,68,44,30.03,29.78,12,1,12,0.00
2013-10-28,58.0,44.9,33.1,37.8,33.7,27.7,95,68,43,30.31,30.02,17,1,18,0.00
2013-10-29,52.8,38.6,31.2,34.1,28.7,22.8,94,70,38,30.41,30.30,3,0,6,0.00
2013-10-30,53.1,41.5,33.0,44.7,38.4,31.4,99,89,66,30.33,30.15,5,0,5,0.00
2013-10-31,62.0,49.2,34.8,61.0,48.0,34.4,100,96,86,30.20,29.75,12,1,12,0.00
2013-11-1,69.6,63.7,58.0,64.2,59.3,55.0,100,87,70,29.75,29.43,22,3,22,0.00
2013-11-2,68.6,55.9,48.8,55.2,48.1,41.3,100,78,39,29.69,29.55,7,0,7,0.00
2013-11-3,52.2,43.3,33.8,49.4,34.0,19.1,92,71,47,30.37,29.68,8,0,8,0.00
2013-11-4,47.0,34.3,28.7,26.3,22.7,16.3,89,64,34,30.67,30.38,8,0,8,0.00
2013-11-5,53.9,37.6,27.4,35.7,29.7,20.9,93,75,44,30.68,30.46,5,0,6,0.00
2013-11-6,63.7,50.1,39.1,51.3,42.6,35.1,93,78,50,30.48,30.00,15,2,15,0.00
2013-11-7,66.4,54.0,40.7,59.5,51.5,36.9,100,92,73,30.01,29.64,17,1,20,0.00
2013-11-8,50.5,40.3,33.5,37.0,30.4,23.4,91,69,48,30.06,29.77,14,2,20,0.00
2013-11-9,45.2,38.5,30.9,33.6,28.0,22.9,88,68,44,30.18,29.99,12,1,12,0.00
2013-11-10,56.9,45.9,40.4,45.8,38.4,32.4,100,77,53,29.99,29.69,15,1,15,0.00
2013-11-11,53.4,45.0,39.6,34.9,30.5,26.5,68,58,37,30.07,29.81,15,2,15,0.00
2013-11-12,47.8,37.4,29.1,42.4,29.2,18.7,96,73,57,30.15,29.85,12,1,13,0.00
2013-11-13,40.4,30.0,25.9,21.4,17.1,12.7,78,62,39,30.25,30.12,15,1,15,0.00
2013-11-14,52.3,38.3,28.7,29.1,23.6,19.1,69,57,36,30.12,29.99,12,2,12,0.00
2013-11-15,61.4,44.7,31.8,35.3,26.2,20.4,77,52,23,30.16,30.06,10,1,13,0.00
2013-11-16,61.8,45.2,36.1,35.5,31.6,24.7,91,63,25,30.28,30.14,7,0,8,0.00
2013-11-17,59.3,48.2,34.4,56.9,44.8,32.0,100,89,67,30.28,29.80,5,0,10,0.00
2013-11-18,65.9,57.8,46.9,62.8,49.8,34.8,100,78,47,29.79,29.49,15,3,23,0.00
2013-11-19,47.3,40.4,32.2,35.6,24.8,18.8,66,54,40,30.23,29.61,22,3,22,0.00
2013-11-20,43.5,32.6,25.8,21.4,17.9,13.6,82,57,32,30.58,30.23,14,1,14,0.00
2013-11-21,49.2,34.5,23.6,31.6,22.4,15.6,89,68,37,30.59,30.33,10,0,10,0.00
2013-11-22,48.7,44.9,39.2,48.1,43.2,32.3,100,94,75,30.33,29.78,5,0,5,0.00
2013-11-23,47.9,41.1,30.8,48.1,29.3,17.6,100,65,38,29.87,29.74,15,3,17,0.00
2013-11-24,30.9,25.3,21.5,21.5,3.9,-5.9,76,47,29,30.15,29.75,24,5,25,0.00
2013-11-25,35.7,26.1,18.5,20.2,5.2,-4.8,61,45,23,30.33,30.15,15,2,17,0.00
2013-11-26,41.8,37.7,31.9,41.7,26.3,19.0,100,65,49,30.28,29.98,14,1,14,0.00
2013-11-27,62.4,52.1,38.8,62.7,51.6,35.4,100,98,87,29.99,29.17,26,3,26,0.00
2013-11-28,38.9,32.4,27.4,36.0,20.4,11.3,91,62,39,30.39,29.41,20,3,25,0.00
2013-11-29,35.4,28.9,22.1,20.4,14.5,5.0,78,58,38,30.70,30.38,8,1,8,0.00
2013-11-30,34.5,26.1,17.6,26.7,15.8,7.6,81,71,55,30.75,30.39,7,0,7,0.00
2013-12-1,40.7,36.5,31.6,39.9,34.7,26.1,100,93,78,30.39,29.96,5,0,5,0.00
2013-12-2,42.1,39.3,37.7,41.1,39.1,37.7,100,99,95,29.97,29.87,5,0,5,0.00
2013-12-3,48.5,39.5,35.4,39.0,36.9,33.9,100,91,61,29.91,29.80,8,1,8,0.00
2013-12-4,44.9,36.3,31.3,34.8,31.8,28.7,99,84,56,30.15,29.90,8,0,8,0.00
2013-12-5,55.0,43.8,32.4,55.1,41.6,30.8,100,92,78,30.17,29.87,8,0,8,0.00
2013-12-6,56.9,50.6,36.8,57.1,48.3,36.0,100,92,75,30.10,29.81,8,1,10,0.00
2013-12-7,40.2,35.1,28.9,36.3,31.4,25.2,98,87,64,30.41,30.02,10,1,12,0.00
2013-12-8,33.0,30.5,25.5,25.2,20.2,14.8,86,66,53,30.55,30.40,5,0,5,0.00
2013-12-9,39.7,35.1,29.4,39.4,32.9,16.6,100,92,53,30.45,29.84,7,0,8,0.00
2013-12-10,36.6,33.8,27.1,35.7,31.9,16.7,99,93,78,29.95,29.74,10,1,10,0.00
2013-12-11,32.8,27.5,24.0,24.0,19.2,15.1,86,79,66,30.17,29.95,17,2,17,0.00
2013-12-12,27.4,22.8,16.4,16.6,8.5,1.3,88,66,41,30.23,30.03,12,1,12,0.00
2013-12-13,31.2,24.0,16.2,20.2,11.8,3.2,80,67,52,30.34,29.95,14,2,14,0.00
2013-12-14,31.0,19.6,13.7,30.9,6.2,-5.3,100,67,45,30.56,30.08,8,1,15,0.00
2013-12-15,36.1,30.7,25.8,36.3,28.3,18.8,100,94,85,30.09,29.37,22,2,22,0.00
2013-12-16,29.7,26.0,18.2,25.3,14.6,6.6,88,70,47,30.16,29.70,14,2,14,0.00
2013-12-17,22.6,17.5,10.1,16.2,7.8,-2.3,92,80,59,30.24,29.90,8,0,8,0.00
2013-12-18,34.9,27.0,19.5,24.5,19.0,11.6,90,80,62,30.03,29.82,15,1,15,0.00
2013-12-19,42.8,33.8,25.4,31.2,25.8,17.0,86,75,55,30.07,29.91,17,2,17,0.00
2013-12-20,51.4,41.9,33.9,38.2,34.3,29.8,89,75,58,30.08,29.86,12,1,12,0.00
2013-12-21,57.2,47.7,40.6,48.3,43.0,35.9,100,85,72,29.92,29.81,8,1,8,0.00
2013-12-22,48.9,42.0,37.4,47.7,41.6,37.3,100,99,95,29.99,29.75,8,1,10,0.00
2013-12-23,38.4,36.5,34.8,38.5,36.6,34.9,100,100,99,30.06,29.90,7,0,7,0.00
2013-12-24,38.3,34.1,28.5,38.4,26.9,19.7,100,75,57,30.16,30.00,8,1,12,0.00
2013-12-25,28.2,22.4,16.8,21.5,6.5,0.7,78,60,46,30.50,30.15,14,1,15,0.00
2013-12-26,36.4,28.6,19.1,33.2,22.9,7.0,95,84,70,30.46,30.04,7,0,7,0.00
2013-12-27,36.5,29.3,24.7,26.2,22.4,16.6,91,80,62,30.24,30.15,10,1,10,0.00
2013-12-28,45.4,33.9,25.8,31.9,27.5,18.3,90,79,56,30.18,29.95,14,1,17,0.00
2013-12-29,42.4,37.2,31.6,41.2,35.1,28.9,100,92,74,29.99,29.36,17,1,17,0.00
2013-12-30,40.3,33.5,23.0,39.1,26.6,8.7,100,79,49,30.12,29.47,12,2,22,0.00
2013-12-31,28.2,22.5,17.4,15.2,7.1,-2.8,79,61,47,30.15,29.97,7,1,8,0.00
2014-1-1,30.4,23.9,18.7,14.4,9.5,5.3,78,63,47,30.34,30.14,12,1,13,0.00
2014-1-2,25.7,17.0,5.7,16.1,8.8,-3.0,89,85,71,30.32,29.80,17,3,17,0.00